Time,TemperatureF,DewpointF,PressureIn,WindDirection,WindDirectionDegrees,WindSpeedMPH,WindSpeedGustMPH,Humidity,HourlyPrecipIn,Conditions,Clouds,dailyrainin,SolarRadiationWatts/m^2,SoftwareType,DateUTC
2013-01-16 00:00:00,68.5,64.8,30.02,SSW,205,4.6,4.6,88,0.00,BKN,,0.00,0.0,WeatherDisplay:10.37,2013-01-16 05:00:00,
2013-01-16 00:02:00,68.5,64.8,30.02,SSE,156,8.1,8.1,88,0.00,BKN,,0.00,0.0,WeatherDisplay:10.37,2013-01-16 05:02:00,
2013-01-16 00:03:00,68.5,64.8,30.02,South,177,5.8,5.8,88,0.00,BKN,,0.00,0.0,WeatherDisplay:10.37,2013-01-16 05:03:00,
2013-01-16 00:08:00,68.5,64.8,30.02,SSW,196,8.1,8.1,88,0.00,BKN,,0.00,0.0,WeatherDisplay:10.37,2013-01-16 05:08:00,
2013-01-16 00:13:00,68.4,64.7,30.02,SSW,196,4.6,4.6,88,0.00,BKN,,0.00,0.0,WeatherDisplay:10.37,2013-01-16 05:13:00,
2013-01-16 00:18:00,68.3,64.6,30.01,SSW,196,4.6,4.6,88,0.00,BKN,,0.00,0.0,WeatherDisplay:10.37,2013-01-16 05:18:00,
2013-01-16 00:23:00,68.2,64.8,30.01,SSW,196,2.3,2.3,89,0.00,BKN,,0.00,0.0,WeatherDisplay:10.37,2013-01-16 05:23:00,
2013-01-16 00:28:00,68.1,64.7,30.01,SSW,194,9.9,9.9,89,0.00,BKN,,0.00,0.0,WeatherDisplay:10.37,2013-01-16 05:28:00,
2013-01-16 00:33:00,68.1,64.7,30.01,SSW,194,4.6,4.6,89,0.00,BKN,,0.00,0.0,WeatherDisplay:10.37,2013-01-16 05:33:00,
2013-01-16 00:38:00,68.1,64.7,30.01,SSW,196,5.8,5.8,89,0.00,BKN,,0.00,0.0,WeatherDisplay:10.37,2013-01-16 05:38:00,
2013-01-16 00:43:00,68.1,64.7,30.01,SSW,202,4.6,4.6,89,0.00,BKN,,0.00,0.0,WeatherDisplay:10.37,2013-01-16 05:43:00,
2013-01-16 00:48:00,68.0,64.6,30.02,SSW,203,5.8,5.8,89,0.00,BKN,,0.00,0.0,WeatherDisplay:10.37,2013-01-16 05:48:00,
2013-01-16 00:53:00,68.1,64.7,30.02,SSW,213,5.8,5.8,89,0.00,BKN,,0.00,0.0,WeatherDisplay:10.37,2013-01-16 05:53:00,
2013-01-16 00:58:00,68.2,64.8,30.02,SSW,207,8.1,8.1,89,0.00,BKN,,0.00,0.0,WeatherDisplay:10.37,2013-01-16 05:58:00,
2013-01-16 01:03:00,68.3,64.9,30.01,SSW,194,5.8,5.8,89,0.00,BKN,,0.00,0.0,WeatherDisplay:10.37,2013-01-16 06:03:00,
2013-01-16 01:08:00,68.3,64.9,30.01,SSW,194,4.4,4.4,89,0.00,BKN,,0.00,0.0,WeatherDisplay:10.37,2013-01-16 06:08:00,
2013-01-16 01:13:00,68.3,64.9,30.01,SSW,195,4.4,4.4,89,0.00,BKN,,0.00,0.0,WeatherDisplay:10.37,2013-01-16 06:13:00,
2013-01-16 01:18:00,68.3,64.9,30.01,SSW,205,5.8,5.8,89,0.00,BKN,,0.00,0.0,WeatherDisplay:10.37,2013-01-16 06:18:00,
2013-01-16 01:23:00,68.4,65.0,30.01,SSW,205,4.6,4.6,89,0.00,BKN,,0.00,0.0,WeatherDisplay:10.37,2013-01-16 06:23:00,
2013-01-16 01:28:00,68.5,65.1,30.01,SSW,205,5.8,5.8,89,0.00,BKN,,0.00,0.0,WeatherDisplay:10.37,2013-01-16 06:28:00,
2013-01-16 01:33:00,68.4,65.0,30.01,SSW,199,4.6,4.6,89,0.00,BKN,,0.00,0.0,WeatherDisplay:10.37,2013-01-16 06:33:00,
2013-01-16 01:38:00,68.3,64.9,30.01,SSW,200,5.8,5.8,89,0.00,BKN,,0.00,0.0,WeatherDisplay:10.37,2013-01-16 06:38:00,
2013-01-16 01:43:00,68.2,64.8,30.01,SSW,207,8.1,8.1,89,0.00,BKN,,0.00,0.0,WeatherDisplay:10.37,2013-01-16 06:43:00,
2013-01-16 01:48:00,68.0,64.6,30.01,SSW,208,3.5,3.5,89,0.00,BKN,,0.00,0.0,WeatherDisplay:10.37,2013-01-16 06:48:00,
2013-01-16 01:54:00,67.7,64.3,30.01,SSW,206,4.6,4.6,89,0.00,BKN,,0.00,0.0,WeatherDisplay:10.37,2013-01-16 06:54:00,
2013-01-16 01:59:00,67.5,64.5,30.01,SSW,206,3.5,3.5,90,0.00,BKN,,0.00,0.0,WeatherDisplay:10.37,2013-01-16 06:59:00,
2013-01-16 03:04:00,66.1,63.7,30.00,SSW,195,5.8,5.8,92,0.00,SCT,,0.00,0.0,WeatherDisplay:10.37,2013-01-16 08:04:00,
2013-01-16 03:09:00,66.1,63.7,30.00,SSW,202,5.8,5.8,92,0.00,SCT,,0.00,0.0,WeatherDisplay:10.37,2013-01-16 08:09:00,
2013-01-16 03:14:00,66.0,63.6,29.99,SSW,201,5.8,5.8,92,0.00,SCT,,0.00,0.0,WeatherDisplay:10.37,2013-01-16 08:14:00,
2013-01-16 03:19:00,65.9,63.5,29.99,SSW,198,5.8,5.8,92,0.00,SCT,,0.00,0.0,WeatherDisplay:10.37,2013-01-16 08:19:00,
2013-01-16 03:24:00,65.9,63.5,29.99,South,188,6.6,6.6,92,0.00,SCT,,0.00,0.0,WeatherDisplay:10.37,2013-01-16 08:24:00,
2013-01-16 03:29:00,65.9,63.8,29.99,SSW,196,4.6,4.6,93,0.00,SCT,,0.00,0.0,WeatherDisplay:10.37,2013-01-16 08:29:00,
2013-01-16 03:34:00,65.9,63.5,29.99,SSW,204,8.1,8.1,92,0.00,SCT,,0.00,0.0,WeatherDisplay:10.37,2013-01-16 08:34:00,
2013-01-16 03:39:00,65.9,63.8,29.99,SW,217,6.9,6.9,93,0.00,SCT,,0.00,0.0,WeatherDisplay:10.37,2013-01-16 08:39:00,
2013-01-16 03:44:00,65.8,63.4,29.99,SSW,193,5.8,5.8,92,0.00,SCT,,0.00,0.0,WeatherDisplay:10.37,2013-01-16 08:44:00,
2013-01-16 03:49:00,65.8,63.7,29.99,SSW,198,4.6,4.6,93,0.00,SCT,,0.00,0.0,WeatherDisplay:10.37,2013-01-16 08:49:00,
2013-01-16 03:54:00,65.8,63.4,29.99,SSW,202,5.8,5.8,92,0.00,SCT,,0.00,0.0,WeatherDisplay:10.37,2013-01-16 08:54:00,
2013-01-16 03:59:00,65.8,63.4,29.99,SW,223,4.6,4.6,92,0.00,SCT,,0.00,0.0,WeatherDisplay:10.37,2013-01-16 08:59:00,
2013-01-16 04:04:00,65.7,63.3,29.99,SSW,199,6.9,6.9,92,0.00,SCT,,0.00,0.0,WeatherDisplay:10.37,2013-01-16 09:04:00,
2013-01-16 04:09:00,65.7,63.6,29.99,SW,219,8.1,8.1,93,0.00,SCT,,0.00,0.0,WeatherDisplay:10.37,2013-01-16 09:09:00,
2013-01-16 04:14:00,65.7,63.6,29.98,SSW,198,5.8,5.8,93,0.00,SCT,,0.00,0.0,WeatherDisplay:10.37,2013-01-16 09:14:00,
2013-01-16 04:19:00,65.6,63.5,29.98,SW,214,6.9,6.9,93,0.00,SCT,,0.00,0.0,WeatherDisplay:10.37,2013-01-16 09:19:00,
2013-01-16 04:24:00,65.5,63.4,29.98,SSW,205,6.9,6.9,93,0.00,SCT,,0.00,0.0,WeatherDisplay:10.37,2013-01-16 09:24:00,
2013-01-16 04:29:00,65.5,63.4,29.99,SSW,201,3.5,3.5,93,0.00,SCT,,0.00,0.0,WeatherDisplay:10.37,2013-01-16 09:29:00,
2013-01-16 04:35:00,65.3,63.2,29.99,SSW,202,4.6,4.8,93,0.00,CLR,,0.00,0.0,WeatherDisplay:10.37,2013-01-16 09:35:00,
2013-01-16 04:40:00,65.2,63.1,29.99,SSW,202,4.6,4.6,93,0.00,SCT,,0.00,0.0,WeatherDisplay:10.37,2013-01-16 09:40:00,
2013-01-16 04:45:00,65.3,63.2,29.98,SSW,202,3.5,3.5,93,0.00,SCT,,0.00,0.0,WeatherDisplay:10.37,2013-01-16 09:45:00,
2013-01-16 04:50:00,65.2,63.1,29.98,SSW,199,3.5,3.5,93,0.00,SCT,,0.00,0.0,WeatherDisplay:10.37,2013-01-16 09:50:00,
2013-01-16 04:55:00,65.0,62.9,29.98,SSW,199,4.6,4.6,93,0.00,SCT,,0.00,0.0,WeatherDisplay:10.37,2013-01-16 09:55:00,
2013-01-16 05:00:00,64.9,62.5,29.99,SSW,199,2.3,2.8,92,0.00,SCT,,0.00,0.0,WeatherDisplay:10.37,2013-01-16 10:00:00,
2013-01-16 05:05:00,64.8,62.7,29.99,South,189,4.6,4.6,93,0.00,SCT,,0.00,0.0,WeatherDisplay:10.37,2013-01-16 10:05:00,
2013-01-16 05:10:00,64.8,62.7,29.99,SSW,193,3.5,3.5,93,0.00,SCT,,0.00,0.0,WeatherDisplay:10.37,2013-01-16 10:10:00,
2013-01-16 05:16:00,64.8,62.7,29.98,SSW,194,4.6,4.6,93,0.00,SCT,,0.00,0.0,WeatherDisplay:10.37,2013-01-16 10:16:00,
2013-01-16 05:21:00,64.9,62.8,29.98,SW,221,5.8,5.8,93,0.00,SCT,,0.00,0.0,WeatherDisplay:10.37,2013-01-16 10:21:00,
2013-01-16 05:26:00,65.1,63.0,29.98,SW,216,4.6,4.6,93,0.00,SCT,,0.00,0.0,WeatherDisplay:10.37,2013-01-16 10:26:00,
2013-01-16 05:31:00,65.0,62.9,29.99,SSW,213,4.6,4.6,93,0.00,SCT,,0.00,0.0,WeatherDisplay:10.37,2013-01-16 10:31:00,
2013-01-16 05:36:00,65.0,62.9,29.99,SSW,213,4.6,4.6,93,0.00,SCT,,0.00,0.0,WeatherDisplay:10.37,2013-01-16 10:36:00,
2013-01-16 05:41:00,65.0,62.6,29.99,SSW,213,3.5,3.5,92,0.00,SCT,,0.00,0.0,WeatherDisplay:10.37,2013-01-16 10:41:00,
2013-01-16 05:46:00,64.6,62.2,29.99,SSW,213,0.0,0.0,92,0.00,SCT,,0.00,0.0,WeatherDisplay:10.37,2013-01-16 10:46:00,
2013-01-16 05:51:00,63.8,61.4,29.99,SSW,213,1.1,1.1,92,0.00,SCT,,0.00,0.0,WeatherDisplay:10.37,2013-01-16 10:51:00,
2013-01-16 05:56:00,63.3,61.2,29.99,SSW,213,0.0,0.0,93,0.00,SCT,,0.00,0.0,WeatherDisplay:10.37,2013-01-16 10:56:00,
2013-01-16 06:01:00,63.0,60.9,29.99,SSW,213,0.0,0.0,93,0.00,SCT,,0.00,0.0,WeatherDisplay:10.37,2013-01-16 11:01:00,
2013-01-16 06:06:00,62.6,60.8,29.99,SSW,213,0.0,0.0,94,0.00,SCT,,0.00,0.0,WeatherDisplay:10.37,2013-01-16 11:06:00,
2013-01-16 06:11:00,62.5,60.7,29.99,SSW,213,0.0,0.0,94,0.00,SCT,,0.00,0.0,WeatherDisplay:10.37,2013-01-16 11:11:00,
2013-01-16 06:16:00,62.4,60.7,29.99,SSW,213,0.0,0.0,94,0.00,SCT,,0.00,0.0,WeatherDisplay:10.37,2013-01-16 11:16:00,
2013-01-16 06:21:00,62.5,61.0,29.99,SSW,213,0.0,0.0,95,0.00,SCT,,0.00,0.0,WeatherDisplay:10.37,2013-01-16 11:21:00,
2013-01-16 06:26:00,62.5,61.0,29.99,SSW,213,0.0,0.0,95,0.00,SCT,,0.00,0.0,WeatherDisplay:10.37,2013-01-16 11:26:00,
2013-01-16 06:31:00,62.4,60.7,30.00,SSW,213,1.1,0.0,94,0.00,SCT,,0.00,0.0,WeatherDisplay:10.37,2013-01-16 11:31:00,
2013-01-16 06:36:00,62.1,60.4,30.00,SSW,213,2.3,2.3,94,0.00,SCT,,0.00,0.0,WeatherDisplay:10.37,2013-01-16 11:36:00,
2013-01-16 06:41:00,61.8,60.1,30.00,SSW,213,3.5,3.5,94,0.00,SCT,,0.00,0.0,WeatherDisplay:10.37,2013-01-16 11:41:00,
2013-01-16 06:46:00,61.8,60.4,30.00,SSW,213,3.5,3.5,95,0.00,SCT,,0.00,0.0,WeatherDisplay:10.37,2013-01-16 11:46:00,
2013-01-16 06:51:00,62.2,60.8,30.00,SSW,213,3.5,3.5,95,0.00,SCT,,0.00,0.0,WeatherDisplay:10.37,2013-01-16 11:51:00,
2013-01-16 06:56:00,62.5,61.0,30.00,SSW,213,3.5,3.5,95,0.00,SCT,,0.00,0.0,WeatherDisplay:10.37,2013-01-16 11:56:00,
2013-01-16 07:01:00,62.7,61.2,30.00,SSW,213,4.6,4.6,95,0.00,BKN,,0.00,0.0,WeatherDisplay:10.37,2013-01-16 12:01:00,
2013-01-16 07:06:00,62.9,61.4,30.00,SSW,213,4.6,4.6,95,0.00,BKN,,0.00,0.0,WeatherDisplay:10.37,2013-01-16 12:06:00,
2013-01-16 07:11:00,63.4,61.9,30.00,SSW,213,3.5,3.7,95,0.00,BKN,,0.00,0.0,WeatherDisplay:10.37,2013-01-16 12:11:00,
2013-01-16 07:16:00,63.7,62.2,30.01,SSW,213,4.6,4.6,95,0.00,BKN,,0.00,0.0,WeatherDisplay:10.37,2013-01-16 12:16:00,
2013-01-16 07:21:00,63.7,62.2,30.01,SSW,213,3.5,3.5,95,0.00,BKN,,0.00,0.0,WeatherDisplay:10.37,2013-01-16 12:21:00,
2013-01-16 07:26:00,63.5,62.0,30.01,SSW,213,3.5,3.5,95,0.00,BKN,,0.00,5.0,WeatherDisplay:10.37,2013-01-16 12:26:00,
2013-01-16 07:31:00,63.5,62.0,30.01,SSW,211,4.6,4.6,95,0.00,BKN,,0.00,9.0,WeatherDisplay:10.37,2013-01-16 12:31:00,
2013-01-16 07:36:00,63.5,62.0,30.01,SSW,211,3.5,3.5,95,0.00,BKN,,0.00,12.0,WeatherDisplay:10.37,2013-01-16 12:36:00,
2013-01-16 07:41:00,63.5,62.0,30.01,SSW,213,4.6,4.6,95,0.00,BKN,,0.00,14.0,WeatherDisplay:10.37,2013-01-16 12:41:00,
2013-01-16 07:46:00,63.6,62.1,30.01,SSW,213,2.3,2.3,95,0.00,BKN,,0.00,16.0,WeatherDisplay:10.37,2013-01-16 12:46:00,
2013-01-16 07:51:00,63.8,62.3,30.01,SW,214,5.5,5.5,95,0.00,BKN,,0.00,18.0,WeatherDisplay:10.37,2013-01-16 12:51:00,
2013-01-16 07:56:00,64.0,62.2,30.01,SW,214,3.5,3.5,94,0.00,BKN,,0.00,25.0,WeatherDisplay:10.37,2013-01-16 12:56:00,
2013-01-16 08:01:00,63.8,62.0,30.02,SW,214,2.3,2.3,94,0.00,BKN,,0.00,26.0,WeatherDisplay:10.37,2013-01-16 13:01:00,
2013-01-16 08:06:00,63.6,62.1,30.02,SW,214,2.3,2.3,95,0.00,BKN,,0.00,30.0,WeatherDisplay:10.37,2013-01-16 13:06:00,
2013-01-16 08:11:00,63.7,62.2,30.02,SW,214,4.6,4.6,95,0.00,BKN,,0.00,33.0,WeatherDisplay:10.37,2013-01-16 13:11:00,
2013-01-16 08:16:00,64.0,62.5,30.02,SW,214,3.5,3.5,95,0.00,BKN,,0.00,33.0,WeatherDisplay:10.37,2013-01-16 13:16:00,
2013-01-16 08:21:00,64.3,62.8,30.02,SW,214,4.4,4.4,95,0.00,BKN,,0.00,39.0,WeatherDisplay:10.37,2013-01-16 13:21:00,
2013-01-16 08:26:00,64.6,63.1,30.02,SW,214,4.6,4.6,95,0.00,BKN,,0.00,49.0,WeatherDisplay:10.37,2013-01-16 13:26:00,
2013-01-16 08:31:00,65.0,63.5,30.03,SSW,208,5.8,5.8,95,0.00,BKN,,0.00,47.0,WeatherDisplay:10.37,2013-01-16 13:31:00,
2013-01-16 08:36:00,65.5,64.0,30.03,SSW,198,8.1,8.1,95,0.00,BKN,,0.00,56.0,WeatherDisplay:10.37,2013-01-16 13:36:00,
2013-01-16 08:41:00,66.1,64.3,30.03,SW,218,8.1,8.1,94,0.00,BKN,,0.00,58.0,WeatherDisplay:10.37,2013-01-16 13:41:00,
2013-01-16 08:46:00,66.7,64.6,30.04,SW,219,5.8,5.9,93,0.00,BKN,,0.00,60.0,WeatherDisplay:10.37,2013-01-16 13:46:00,
2013-01-16 08:51:00,67.3,65.2,30.04,SW,215,10.4,10.4,93,0.00,BKN,,0.00,63.0,WeatherDisplay:10.37,2013-01-16 13:51:00,
2013-01-16 08:56:00,67.9,65.5,30.04,SW,219,8.1,8.1,92,0.00,BKN,,0.00,67.0,WeatherDisplay:10.37,2013-01-16 13:56:00,
2013-01-16 09:01:00,68.4,65.4,30.04,SW,219,9.2,9.2,90,0.00,BKN,,0.00,257.0,WeatherDisplay:10.37,2013-01-16 14:01:00,
2013-01-16 09:06:00,68.9,65.5,30.04,SSW,201,11.0,11.0,89,0.00,BKN,,0.00,232.0,WeatherDisplay:10.37,2013-01-16 14:06:00,
2013-01-16 09:11:00,69.5,65.8,30.04,SW,226,6.9,6.9,88,0.00,BKN,,0.00,279.0,WeatherDisplay:10.37,2013-01-16 14:11:00,
2013-01-16 09:16:00,70.1,66.0,30.04,SW,222,8.1,8.1,87,0.00,BKN,,0.00,237.0,WeatherDisplay:10.37,2013-01-16 14:16:00,
2013-01-16 09:21:00,70.7,66.3,30.04,SW,215,9.2,9.2,86,0.00,BKN,,0.00,283.0,WeatherDisplay:10.37,2013-01-16 14:21:00,
2013-01-16 09:26:00,70.9,66.5,30.04,SW,227,8.1,8.1,86,0.00,BKN,,0.00,290.0,WeatherDisplay:10.37,2013-01-16 14:26:00,
2013-01-16 09:31:00,71.6,66.5,30.04,SW,231,10.4,10.4,84,0.00,BKN,,0.00,329.0,WeatherDisplay:10.37,2013-01-16 14:31:00,
2013-01-16 09:36:00,72.1,67.0,30.04,SSW,196,9.2,9.2,84,0.00,BKN,,0.00,359.0,WeatherDisplay:10.37,2013-01-16 14:36:00,
2013-01-16 09:41:00,72.4,67.3,30.04,SW,235,10.4,10.4,84,0.00,BKN,,0.00,383.0,WeatherDisplay:10.37,2013-01-16 14:41:00,
2013-01-16 09:46:00,73.0,67.2,30.04,SW,226,9.2,9.2,82,0.00,BKN,,0.00,397.0,WeatherDisplay:10.37,2013-01-16 14:46:00,
2013-01-16 09:51:00,73.6,67.4,30.04,SW,223,10.4,10.4,81,0.00,BKN,,0.00,413.0,WeatherDisplay:10.37,2013-01-16 14:51:00,
2013-01-16 09:56:00,74.0,67.4,30.04,SW,227,6.9,7.1,80,0.00,BKN,,0.00,415.0,WeatherDisplay:10.37,2013-01-16 14:56:00,
2013-01-16 10:01:00,73.9,67.7,30.04,SW,227,11.5,11.5,81,0.00,BKN,,0.00,431.0,WeatherDisplay:10.37,2013-01-16 15:01:00,
2013-01-16 10:07:00,74.4,67.5,30.04,SSW,211,11.5,11.5,79,0.00,BKN,,0.00,450.0,WeatherDisplay:10.37,2013-01-16 15:07:00,
2013-01-16 10:12:00,75.0,68.0,30.04,SW,236,11.5,11.5,79,0.00,BKN,,0.00,471.0,WeatherDisplay:10.37,2013-01-16 15:12:00,
2013-01-16 10:17:00,75.3,68.0,30.04,SW,226,11.5,11.5,78,0.00,BKN,,0.00,550.0,WeatherDisplay:10.37,2013-01-16 15:17:00,
2013-01-16 10:22:00,75.4,67.3,30.04,SW,227,10.4,10.4,76,0.00,BKN,,0.00,292.0,WeatherDisplay:10.37,2013-01-16 15:22:00,
2013-01-16 10:27:00,75.0,67.3,30.04,SW,231,8.1,8.1,77,0.00,BKN,,0.00,281.0,WeatherDisplay:10.37,2013-01-16 15:27:00,
2013-01-16 10:32:00,75.0,67.3,30.04,SW,219,10.4,10.4,77,0.00,BKN,,0.00,262.0,WeatherDisplay:10.37,2013-01-16 15:32:00,
2013-01-16 10:39:00,75.0,67.3,30.04,SW,231,5.8,7.2,77,0.00,BKN,,0.00,246.0,WeatherDisplay:10.37,2013-01-16 15:39:00,
2013-01-16 10:44:00,74.9,67.6,30.04,SW,223,5.8,5.8,78,0.00,BKN,,0.00,369.0,WeatherDisplay:10.37,2013-01-16 15:44:00,
2013-01-16 10:49:00,75.3,68.0,30.04,SW,223,3.5,3.5,78,0.00,BKN,,0.00,209.0,WeatherDisplay:10.37,2013-01-16 15:49:00,
2013-01-16 10:54:00,75.8,67.7,30.04,SW,227,6.6,6.6,76,0.00,BKN,,0.00,209.0,WeatherDisplay:10.37,2013-01-16 15:54:00,
2013-01-16 10:59:00,76.5,68.4,30.03,SW,231,5.8,5.8,76,0.00,BKN,,0.00,350.0,WeatherDisplay:10.37,2013-01-16 15:59:00,
2013-01-16 11:04:00,76.6,68.1,30.03,SW,231,9.2,9.2,75,0.00,BKN,,0.00,272.0,WeatherDisplay:10.37,2013-01-16 16:04:00,
2013-01-16 11:09:00,76.4,67.9,30.03,WSW,246,10.4,10.4,75,0.00,BKN,,0.00,294.0,WeatherDisplay:10.37,2013-01-16 16:09:00,
2013-01-16 11:14:00,76.3,67.8,30.02,WSW,238,11.5,11.5,75,0.00,BKN,,0.00,724.0,WeatherDisplay:10.37,2013-01-16 16:14:00,
2013-01-16 11:19:00,76.9,68.4,30.02,SW,214,8.1,8.1,75,0.00,BKN,,0.00,371.0,WeatherDisplay:10.37,2013-01-16 16:19:00,
2013-01-16 11:24:00,78.3,68.5,30.02,SW,227,8.1,8.1,72,0.00,BKN,,0.00,700.0,WeatherDisplay:10.37,2013-01-16 16:24:00,
2013-01-16 11:30:00,78.0,67.8,30.02,SW,227,12.7,12.7,71,0.00,BKN,,0.00,700.0,WeatherDisplay:10.37,2013-01-16 16:30:00,
2013-01-16 11:35:00,78.0,68.2,30.02,South,180,11.5,11.5,72,0.00,BKN,,0.00,561.0,WeatherDisplay:10.37,2013-01-16 16:35:00,
2013-01-16 11:40:00,78.1,67.9,30.02,SW,219,10.4,10.4,71,0.00,BKN,,0.00,624.0,WeatherDisplay:10.37,2013-01-16 16:40:00,
2013-01-16 11:45:00,78.6,68.0,30.01,SSW,198,12.7,12.7,70,0.00,BKN,,0.00,640.0,WeatherDisplay:10.37,2013-01-16 16:45:00,
2013-01-16 11:50:00,79.4,68.8,30.01,WSW,238,9.2,9.4,70,0.00,BKN,,0.00,738.0,WeatherDisplay:10.37,2013-01-16 16:50:00,
2013-01-16 11:55:00,79.3,68.2,30.01,SW,215,10.4,10.4,69,0.00,BKN,,0.00,204.0,WeatherDisplay:10.37,2013-01-16 16:55:00,
2013-01-16 12:00:00,78.7,67.2,30.01,SSW,192,12.7,12.7,68,0.00,BKN,,0.00,209.0,WeatherDisplay:10.37,2013-01-16 17:00:00,
2013-01-16 12:05:00,78.7,67.3,30.01,SW,221,8.0,13.0,68,0.00,SCT,,0.00,700.0,WeatherDisplay:10.37,2013-01-16 17:05:00,
2013-01-16 12:10:00,78.9,66.6,30.01,WSW,237,11.0,11.0,66,0.00,SCT,,0.00,105.0,WeatherDisplay:10.37,2013-01-16 17:10:00,
2013-01-16 12:15:00,79.3,67.8,30.00,SSW,192,9.2,9.2,68,0.00,SCT,,0.00,679.0,WeatherDisplay:10.37,2013-01-16 17:15:00,
2013-01-16 12:20:00,80.2,67.4,30.00,SSW,211,12.7,12.7,65,0.00,SCT,,0.00,664.0,WeatherDisplay:10.37,2013-01-16 17:20:00,
2013-01-16 12:25:00,80.5,67.2,30.00,SW,224,7.0,13.0,64,0.00,SCT,,0.00,659.0,WeatherDisplay:10.37,2013-01-16 17:25:00,
2013-01-16 12:30:00,80.2,66.9,29.99,WSW,237,15.0,15.0,64,0.00,SCT,,0.00,677.0,WeatherDisplay:10.37,2013-01-16 17:30:00,
2013-01-16 12:35:00,80.4,66.2,29.99,SW,231,10.0,19.0,62,0.00,SCT,,0.00,673.0,WeatherDisplay:10.37,2013-01-16 17:35:00,
2013-01-16 12:40:00,80.7,66.5,29.99,SW,227,15.0,15.0,62,0.00,SCT,,0.00,668.0,WeatherDisplay:10.37,2013-01-16 17:40:00,
2013-01-16 12:45:00,81.2,66.5,29.98,SSW,206,12.7,12.7,61,0.00,SCT,,0.00,663.0,WeatherDisplay:10.37,2013-01-16 17:45:00,
2013-01-16 12:50:00,80.9,66.2,29.98,SW,222,9.0,17.0,61,0.00,SCT,,0.00,659.0,WeatherDisplay:10.37,2013-01-16 17:50:00,
2013-01-16 12:55:00,80.7,65.5,29.98,SW,235,18.4,18.4,60,0.00,SCT,,0.00,652.0,WeatherDisplay:10.37,2013-01-16 17:55:00,
2013-01-16 13:00:00,81.3,65.6,29.98,SW,236,16.1,16.1,59,0.00,SCT,,0.00,659.0,WeatherDisplay:10.37,2013-01-16 18:00:00,
2013-01-16 13:05:00,80.9,63.7,29.98,SW,222,13.0,18.0,56,0.00,BKN,,0.00,656.0,WeatherDisplay:10.37,2013-01-16 18:05:00,
2013-01-16 13:10:00,81.6,63.9,29.98,SSW,211,13.2,13.2,55,0.00,BKN,,0.00,643.0,WeatherDisplay:10.37,2013-01-16 18:10:00,
2013-01-16 13:15:00,81.6,63.3,29.97,WSW,240,12.7,12.7,54,0.00,BKN,,0.00,680.0,WeatherDisplay:10.37,2013-01-16 18:15:00,
2013-01-16 13:20:00,81.2,64.0,29.97,SSW,198,11.0,11.0,56,0.00,BKN,,0.00,714.0,WeatherDisplay:10.37,2013-01-16 18:20:00,
2013-01-16 13:25:00,80.9,63.2,29.97,SW,225,9.0,19.0,55,0.00,BKN,,0.00,687.0,WeatherDisplay:10.37,2013-01-16 18:25:00,
2013-01-16 13:30:00,81.6,63.3,29.97,SW,233,11.5,12.4,54,0.00,BKN,,0.00,671.0,WeatherDisplay:10.37,2013-01-16 18:30:00,
2013-01-16 13:35:00,81.6,63.3,29.97,SW,216,19.6,19.6,54,0.00,BKN,,0.00,629.0,WeatherDisplay:10.37,2013-01-16 18:35:00,
2013-01-16 13:40:00,81.4,64.2,29.97,SW,221,6.0,14.0,56,0.00,BKN,,0.00,199.0,WeatherDisplay:10.37,2013-01-16 18:40:00,
2013-01-16 13:45:00,81.0,63.8,29.96,WSW,244,16.1,16.1,56,0.00,BKN,,0.00,703.0,WeatherDisplay:10.37,2013-01-16 18:45:00,
2013-01-16 13:50:00,81.8,63.5,29.96,SSW,198,12.7,12.7,54,0.00,BKN,,0.00,643.0,WeatherDisplay:10.37,2013-01-16 18:50:00,
2013-01-16 13:55:00,81.6,63.3,29.96,SW,217,10.0,17.0,54,0.00,BKN,,0.00,657.0,WeatherDisplay:10.37,2013-01-16 18:55:00,
2013-01-16 14:00:00,81.2,64.0,29.96,WSW,242,10.4,12.9,56,0.00,BKN,,0.00,656.0,WeatherDisplay:10.37,2013-01-16 19:00:00,
2013-01-16 14:05:00,81.9,64.7,29.96,SW,221,10.4,10.4,56,0.00,SCT,,0.00,587.0,WeatherDisplay:10.37,2013-01-16 19:05:00,
2013-01-16 14:10:00,82.0,64.7,29.96,SW,224,7.0,13.0,56,0.00,SCT,,0.00,568.0,WeatherDisplay:10.37,2013-01-16 19:10:00,
2013-01-16 14:15:00,81.9,64.1,29.95,SW,222,15.0,15.0,55,0.00,SCT,,0.00,554.0,WeatherDisplay:10.37,2013-01-16 19:15:00,
2013-01-16 14:20:00,82.3,65.0,29.95,SW,229,9.2,9.2,56,0.00,SCT,,0.00,550.0,WeatherDisplay:10.37,2013-01-16 19:20:00,
2013-01-16 14:25:00,82.4,64.1,29.95,SW,216,5.0,13.0,54,0.00,SCT,,0.00,548.0,WeatherDisplay:10.37,2013-01-16 19:25:00,
2013-01-16 14:30:00,82.5,65.2,29.95,WSW,242,13.7,13.7,56,0.00,SCT,,0.00,527.0,WeatherDisplay:10.37,2013-01-16 19:30:00,
2013-01-16 14:35:00,82.2,64.9,29.95,SW,223,8.0,17.0,56,0.00,SCT,,0.00,517.0,WeatherDisplay:10.37,2013-01-16 19:35:00,
2013-01-16 14:40:00,82.2,64.9,29.95,SW,225,7.0,13.0,56,0.00,SCT,,0.00,515.0,WeatherDisplay:10.37,2013-01-16 19:40:00,
2013-01-16 14:45:00,82.3,64.5,29.94,SW,233,12.7,12.7,55,0.00,SCT,,0.00,534.0,WeatherDisplay:10.37,2013-01-16 19:45:00,
2013-01-16 14:50:00,82.0,63.7,29.94,WSW,239,11.5,11.5,54,0.00,SCT,,0.00,483.0,WeatherDisplay:10.37,2013-01-16 19:50:00,
2013-01-16 14:55:00,82.2,64.4,29.94,SW,219,6.9,6.9,55,0.00,SCT,,0.00,469.0,WeatherDisplay:10.37,2013-01-16 19:55:00,
2013-01-16 15:00:00,81.9,63.1,29.94,SW,236,10.4,10.4,53,0.00,SCT,,0.00,455.0,WeatherDisplay:10.37,2013-01-16 20:00:00,
2013-01-16 15:05:00,81.7,62.9,29.94,SW,229,11.5,11.5,53,0.00,SCT,,0.00,457.0,WeatherDisplay:10.37,2013-01-16 20:05:00,
2013-01-16 15:10:00,82.1,64.3,29.94,SSW,213,8.0,13.0,55,0.00,SCT,,0.00,436.0,WeatherDisplay:10.37,2013-01-16 20:10:00,
2013-01-16 15:15:00,81.7,63.4,29.94,SSW,196,15.0,15.0,54,0.00,SCT,,0.00,411.0,WeatherDisplay:10.37,2013-01-16 20:15:00,
2013-01-16 15:20:00,82.1,63.8,29.94,SSW,208,9.0,12.0,54,0.00,SCT,,0.00,408.0,WeatherDisplay:10.37,2013-01-16 20:20:00,
2013-01-16 15:25:00,81.9,63.6,29.94,SW,228,12.7,12.7,54,0.00,SCT,,0.00,392.0,WeatherDisplay:10.37,2013-01-16 20:25:00,
2013-01-16 15:30:00,80.8,63.6,29.94,SW,229,6.9,6.9,56,0.00,SCT,,0.00,369.0,WeatherDisplay:10.37,2013-01-16 20:30:00,
2013-01-16 15:35:00,81.1,63.4,29.94,SW,225,9.0,14.0,55,0.00,SCT,,0.00,352.0,WeatherDisplay:10.37,2013-01-16 20:35:00,
2013-01-16 15:40:00,81.2,63.5,29.94,SW,228,11.5,11.5,55,0.00,SCT,,0.00,329.0,WeatherDisplay:10.37,2013-01-16 20:40:00,
2013-01-16 15:45:00,81.1,63.4,29.94,SW,235,11.5,11.5,55,0.00,SCT,,0.00,213.0,WeatherDisplay:10.37,2013-01-16 20:45:00,
2013-01-16 15:50:00,80.7,64.1,29.94,SW,219,8.0,13.0,57,0.00,SCT,,0.00,257.0,WeatherDisplay:10.37,2013-01-16 20:50:00,
2013-01-16 15:55:00,80.2,63.1,29.94,SSW,212,8.1,8.1,56,0.00,SCT,,0.00,67.0,WeatherDisplay:10.37,2013-01-16 20:55:00,
2013-01-16 16:00:00,79.5,63.4,29.94,SW,215,9.2,9.2,58,0.00,SCT,,0.00,197.0,WeatherDisplay:10.37,2013-01-16 21:00:00,
2013-01-16 16:05:00,80.0,63.9,29.94,SW,215,8.0,10.0,58,0.00,SCT,,0.00,97.0,WeatherDisplay:10.37,2013-01-16 21:05:00,
2013-01-16 16:10:00,79.8,64.2,29.94,SSW,207,3.0,10.0,59,0.00,SCT,,0.00,237.0,WeatherDisplay:10.37,2013-01-16 21:10:00,
2013-01-16 16:15:00,79.9,63.3,29.94,SW,234,9.9,9.9,57,0.00,SCT,,0.00,144.0,WeatherDisplay:10.37,2013-01-16 21:15:00,
2013-01-16 16:20:00,79.5,63.4,29.94,SW,219,6.0,12.0,58,0.00,SCT,,0.00,58.0,WeatherDisplay:10.37,2013-01-16 21:20:00,
2013-01-16 16:25:00,79.4,63.8,29.94,SSW,213,6.0,8.0,59,0.00,SCT,,0.00,204.0,WeatherDisplay:10.37,2013-01-16 21:25:00,
2013-01-16 16:30:00,79.4,63.3,29.94,SW,229,11.5,11.5,58,0.00,SCT,,0.00,181.0,WeatherDisplay:10.37,2013-01-16 21:30:00,
2013-01-16 16:35:00,79.3,63.3,29.94,SW,221,8.0,10.0,58,0.00,SCT,,0.00,171.0,WeatherDisplay:10.37,2013-01-16 21:35:00,
2013-01-16 16:40:00,79.1,63.5,29.94,SW,218,6.0,9.0,59,0.00,SCT,,0.00,171.0,WeatherDisplay:10.37,2013-01-16 21:40:00,
2013-01-16 16:45:00,78.9,63.4,29.94,SSW,213,10.4,10.4,59,0.00,SCT,,0.00,144.0,WeatherDisplay:10.37,2013-01-16 21:45:00,
2013-01-16 16:50:00,78.7,63.2,29.94,SW,223,10.4,10.4,59,0.00,SCT,,0.00,116.0,WeatherDisplay:10.37,2013-01-16 21:50:00,
2013-01-16 16:55:00,78.2,63.2,29.94,SW,214,7.0,9.0,60,0.00,SCT,,0.00,111.0,WeatherDisplay:10.37,2013-01-16 21:55:00,
2013-01-16 17:00:00,78.0,63.0,29.95,SW,221,5.8,5.8,60,0.00,SCT,,0.00,37.0,WeatherDisplay:10.37,2013-01-16 22:00:00,
2013-01-16 17:05:00,77.9,62.9,29.95,SW,232,6.9,6.9,60,0.00,SCT,,0.00,28.0,WeatherDisplay:10.37,2013-01-16 22:05:00,
2013-01-16 17:10:00,77.6,63.1,29.95,SW,224,6.0,12.0,61,0.00,SCT,,0.00,28.0,WeatherDisplay:10.37,2013-01-16 22:10:00,
2013-01-16 17:15:00,77.0,63.0,29.95,SSW,201,5.8,5.8,62,0.00,SCT,,0.00,26.0,WeatherDisplay:10.37,2013-01-16 22:15:00,
2013-01-16 17:20:00,76.6,63.1,29.95,SSW,207,4.6,4.6,63,0.00,SCT,,0.00,25.0,WeatherDisplay:10.37,2013-01-16 22:20:00,
2013-01-16 17:25:00,76.3,63.2,29.95,SSW,210,3.5,3.5,64,0.00,SCT,,0.00,21.0,WeatherDisplay:10.37,2013-01-16 22:25:00,
2013-01-16 17:30:00,75.9,63.3,29.95,SSW,210,3.5,3.5,65,0.00,SCT,,0.00,18.0,WeatherDisplay:10.37,2013-01-16 22:30:00,
2013-01-16 17:35:00,75.5,63.3,29.95,SSW,195,4.6,4.6,66,0.00,SCT,,0.00,14.0,WeatherDisplay:10.37,2013-01-16 22:35:00,
2013-01-16 17:40:00,75.4,63.2,29.95,South,189,8.1,8.1,66,0.00,SCT,,0.00,11.0,WeatherDisplay:10.37,2013-01-16 22:40:00,
2013-01-16 17:45:00,75.3,63.6,29.95,South,188,6.9,6.9,67,0.00,SCT,,0.00,7.0,WeatherDisplay:10.37,2013-01-16 22:45:00,
2013-01-16 17:50:00,75.0,63.3,29.95,South,188,3.5,3.5,67,0.00,SCT,,0.00,5.0,WeatherDisplay:10.37,2013-01-16 22:50:00,
2013-01-16 17:55:00,74.7,63.4,29.95,South,188,4.6,4.6,68,0.00,SCT,,0.00,0.0,WeatherDisplay:10.37,2013-01-16 22:55:00,
2013-01-16 18:00:00,74.3,63.5,29.95,SSW,202,5.8,5.8,69,0.00,SCT,,0.00,0.0,WeatherDisplay:10.37,2013-01-16 23:00:00,
2013-01-16 18:05:00,74.1,63.7,29.95,SSW,203,3.5,3.5,70,0.00,SCT,,0.00,0.0,WeatherDisplay:10.37,2013-01-16 23:05:00,
2013-01-16 18:10:00,73.6,63.2,29.95,SSW,203,3.5,3.5,70,0.00,SCT,,0.00,0.0,WeatherDisplay:10.37,2013-01-16 23:10:00,
2013-01-16 18:15:00,72.9,63.3,29.95,SSW,203,1.1,1.1,72,0.00,SCT,,0.00,0.0,WeatherDisplay:10.37,2013-01-16 23:15:00,
2013-01-16 18:20:00,72.4,63.3,29.95,SSW,203,3.5,3.5,73,0.00,SCT,,0.00,0.0,WeatherDisplay:10.37,2013-01-16 23:20:00,
2013-01-16 18:25:00,71.6,62.9,29.95,SSW,203,2.3,2.3,74,0.00,SCT,,0.00,0.0,WeatherDisplay:10.37,2013-01-16 23:25:00,
2013-01-16 18:30:00,71.1,62.8,29.95,SSW,203,2.3,2.3,75,0.00,SCT,,0.00,0.0,WeatherDisplay:10.37,2013-01-16 23:30:00,
2013-01-16 18:35:00,71.2,63.2,29.95,SSW,203,4.6,4.6,76,0.00,SCT,,0.00,0.0,WeatherDisplay:10.37,2013-01-16 23:35:00,
2013-01-16 18:40:00,71.2,63.2,29.95,SSW,203,2.3,2.3,76,0.00,SCT,,0.00,0.0,WeatherDisplay:10.37,2013-01-16 23:40:00,
2013-01-16 18:45:00,71.2,63.2,29.96,SSW,203,3.5,3.5,76,0.00,SCT,,0.00,0.0,WeatherDisplay:10.37,2013-01-16 23:45:00,
2013-01-16 18:50:00,70.5,62.9,29.96,SSW,203,2.3,2.3,77,0.00,SCT,,0.00,0.0,WeatherDisplay:10.37,2013-01-16 23:50:00,
2013-01-16 18:55:00,70.0,62.8,29.96,SSW,203,3.5,3.5,78,0.00,SCT,,0.00,0.0,WeatherDisplay:10.37,2013-01-16 23:55:00,
2013-01-16 19:00:00,69.4,62.6,29.96,SSW,203,2.3,2.3,79,0.00,SCT,,0.00,0.0,WeatherDisplay:10.37,2013-01-17 00:00:00,
2013-01-16 19:05:00,69.0,62.6,29.96,SSW,203,2.3,2.3,80,0.00,SCT,,0.00,0.0,WeatherDisplay:10.37,2013-01-17 00:05:00,
2013-01-16 19:10:00,68.5,62.1,29.96,SSW,203,2.3,2.3,80,0.00,SCT,,0.00,0.0,WeatherDisplay:10.37,2013-01-17 00:10:00,
2013-01-16 19:15:00,68.1,62.0,29.96,SSW,203,2.3,2.3,81,0.00,SCT,,0.00,0.0,WeatherDisplay:10.37,2013-01-17 00:15:00,
2013-01-16 19:20:00,67.9,62.2,29.96,SSW,203,1.1,0.0,82,0.00,SCT,,0.00,0.0,WeatherDisplay:10.37,2013-01-17 00:20:00,
2013-01-16 19:25:00,67.4,62.4,29.96,SSW,203,0.0,0.0,84,0.00,SCT,,0.00,0.0,WeatherDisplay:10.37,2013-01-17 00:25:00,
2013-01-16 19:30:00,66.9,61.9,29.97,SSW,203,0.0,0.0,84,0.00,SCT,,0.00,0.0,WeatherDisplay:10.37,2013-01-17 00:30:00,
2013-01-16 19:35:00,66.3,61.7,29.97,SSW,203,0.0,0.0,85,0.00,SCT,,0.00,0.0,WeatherDisplay:10.37,2013-01-17 00:35:00,
2013-01-16 19:40:00,65.9,61.3,29.97,SSW,203,1.1,1.1,85,0.00,SCT,,0.00,0.0,WeatherDisplay:10.37,2013-01-17 00:40:00,
2013-01-16 19:45:00,65.8,61.5,29.97,SSW,203,0.0,0.0,86,0.00,SCT,,0.00,0.0,WeatherDisplay:10.37,2013-01-17 00:45:00,
2013-01-16 19:50:00,65.6,61.3,29.97,SSW,203,0.0,0.0,86,0.00,SCT,,0.00,0.0,WeatherDisplay:10.37,2013-01-17 00:50:00,
2013-01-16 19:55:00,65.6,61.6,29.97,SSW,203,0.0,0.0,87,0.00,SCT,,0.00,0.0,WeatherDisplay:10.37,2013-01-17 00:55:00,
2013-01-16 20:00:00,65.2,61.2,29.98,SSW,203,0.0,0.0,87,0.00,SCT,,0.00,0.0,WeatherDisplay:10.37,2013-01-17 01:00:00,
2013-01-16 20:05:00,64.9,60.9,29.98,SSW,203,0.0,0.0,87,0.00,SCT,,0.00,0.0,WeatherDisplay:10.37,2013-01-17 01:05:00,
2013-01-16 20:10:00,64.9,60.9,29.98,SSW,203,0.0,0.0,87,0.00,SCT,,0.00,0.0,WeatherDisplay:10.37,2013-01-17 01:10:00,
2013-01-16 20:15:00,64.6,60.6,29.98,SSW,203,0.0,0.0,87,0.00,SCT,,0.00,0.0,WeatherDisplay:10.37,2013-01-17 01:15:00,
2013-01-16 20:20:00,64.9,61.3,29.98,SSW,203,0.0,0.0,88,0.00,SCT,,0.00,0.0,WeatherDisplay:10.37,2013-01-17 01:20:00,
2013-01-16 20:25:00,65.1,61.5,29.98,SSW,203,2.2,2.2,88,0.00,SCT,,0.00,0.0,WeatherDisplay:10.37,2013-01-17 01:25:00,
2013-01-16 20:30:00,65.2,61.2,29.98,SSW,203,2.3,2.3,87,0.00,SCT,,0.00,0.0,WeatherDisplay:10.37,2013-01-17 01:30:00,
2013-01-16 20:35:00,65.4,61.4,29.98,SSW,208,3.5,3.5,87,0.00,SCT,,0.00,0.0,WeatherDisplay:10.37,2013-01-17 01:35:00,
2013-01-16 20:40:00,65.9,61.6,29.98,SSW,208,1.1,1.1,86,0.00,SCT,,0.00,0.0,WeatherDisplay:10.37,2013-01-17 01:40:00,
2013-01-16 20:45:00,65.6,61.3,29.98,SSW,208,3.5,0.0,86,0.00,SCT,,0.00,0.0,WeatherDisplay:10.37,2013-01-17 01:45:00,
2013-01-16 20:50:00,65.0,61.0,29.98,SSW,208,0.0,0.0,87,0.00,SCT,,0.00,0.0,WeatherDisplay:10.37,2013-01-17 01:50:00,
2013-01-16 20:55:00,64.5,60.9,29.98,SSW,208,0.0,0.0,88,0.00,SCT,,0.00,0.0,WeatherDisplay:10.37,2013-01-17 01:55:00,
2013-01-16 21:00:00,63.9,60.3,29.99,SSW,208,0.0,0.0,88,0.00,SCT,,0.00,0.0,WeatherDisplay:10.37,2013-01-17 02:00:00,
2013-01-16 21:05:00,63.4,60.1,29.99,SSW,208,0.0,0.0,89,0.00,SCT,,0.00,0.0,WeatherDisplay:10.37,2013-01-17 02:05:00,
2013-01-16 21:10:00,63.3,60.3,29.99,SSW,208,0.0,0.0,90,0.00,SCT,,0.00,0.0,WeatherDisplay:10.37,2013-01-17 02:10:00,
2013-01-16 21:15:00,63.3,60.3,29.99,SSW,208,0.0,0.0,90,0.00,SCT,,0.00,0.0,WeatherDisplay:10.37,2013-01-17 02:15:00,
2013-01-16 21:21:00,63.1,60.1,29.99,SSW,208,0.0,0.0,90,0.00,FEW,,0.00,0.0,WeatherDisplay:10.37,2013-01-17 02:21:00,
2013-01-16 21:26:00,63.0,60.0,29.99,SSW,208,1.1,1.1,90,0.00,FEW,,0.00,0.0,WeatherDisplay:10.37,2013-01-17 02:26:00,
2013-01-16 21:31:00,62.6,59.6,29.98,SSW,208,0.0,0.0,90,0.00,FEW,,0.00,0.0,WeatherDisplay:10.37,2013-01-17 02:31:00,
2013-01-16 21:36:00,62.6,59.6,29.98,SSW,208,0.0,0.0,90,0.00,FEW,,0.00,0.0,WeatherDisplay:10.37,2013-01-17 02:36:00,
2013-01-16 21:41:00,62.5,59.8,29.98,SSW,208,0.0,0.0,91,0.00,FEW,,0.00,0.0,WeatherDisplay:10.37,2013-01-17 02:41:00,
2013-01-16 21:46:00,62.7,60.0,29.98,SSW,208,0.0,0.0,91,0.00,FEW,,0.00,0.0,WeatherDisplay:10.37,2013-01-17 02:46:00,
2013-01-16 21:51:00,62.4,59.7,29.98,SSW,208,0.0,0.0,91,0.00,FEW,,0.00,0.0,WeatherDisplay:10.37,2013-01-17 02:51:00,
2013-01-16 21:56:00,62.9,60.2,29.98,SSW,208,3.5,3.5,91,0.00,FEW,,0.00,0.0,WeatherDisplay:10.37,2013-01-17 02:56:00,
2013-01-16 22:01:00,62.9,60.2,29.98,SSW,208,0.0,0.0,91,0.00,FEW,,0.00,0.0,WeatherDisplay:10.37,2013-01-17 03:01:00,
2013-01-16 22:06:00,62.5,59.8,29.98,SSW,208,1.1,1.1,91,0.00,FEW,,0.00,0.0,WeatherDisplay:10.37,2013-01-17 03:06:00,
2013-01-16 22:11:00,62.4,59.7,29.98,SSW,208,0.0,0.0,91,0.00,FEW,,0.00,0.0,WeatherDisplay:10.37,2013-01-17 03:11:00,
2013-01-16 22:16:00,62.0,59.3,29.98,SSW,208,0.0,0.0,91,0.00,FEW,,0.00,0.0,WeatherDisplay:10.37,2013-01-17 03:16:00,
2013-01-16 22:21:00,61.8,59.5,29.98,SSW,208,0.0,0.0,92,0.00,FEW,,0.00,0.0,WeatherDisplay:10.37,2013-01-17 03:21:00,
2013-01-16 22:26:00,61.9,59.5,29.98,SSW,208,0.0,0.0,92,0.00,FEW,,0.00,0.0,WeatherDisplay:10.37,2013-01-17 03:26:00,
2013-01-16 22:31:00,61.3,58.7,29.98,SSW,208,0.0,0.0,91,0.00,FEW,,0.00,0.0,WeatherDisplay:10.37,2013-01-17 03:31:00,
2013-01-16 22:36:00,61.2,58.9,29.98,SSW,208,0.0,0.0,92,0.00,FEW,,0.00,0.0,WeatherDisplay:10.37,2013-01-17 03:36:00,
2013-01-16 22:41:00,61.3,59.0,29.98,SSW,208,0.0,0.0,92,0.00,FEW,,0.00,0.0,WeatherDisplay:10.37,2013-01-17 03:41:00,
2013-01-16 22:46:00,61.1,58.8,29.97,SSW,208,0.0,0.2,92,0.00,FEW,,0.00,0.0,WeatherDisplay:10.37,2013-01-17 03:46:00,
2013-01-16 22:51:00,61.3,59.3,29.97,SSW,208,0.0,0.0,93,0.00,FEW,,0.00,0.0,WeatherDisplay:10.37,2013-01-17 03:51:00,
2013-01-16 22:56:00,61.2,58.9,29.97,SSW,208,0.0,0.0,92,0.00,FEW,,0.00,0.0,WeatherDisplay:10.37,2013-01-17 03:56:00,
2013-01-16 23:01:00,61.1,59.1,29.97,SSW,208,0.0,0.0,93,0.00,FEW,,0.00,0.0,WeatherDisplay:10.37,2013-01-17 04:01:00,
2013-01-16 23:06:00,61.0,58.7,29.97,SSW,208,0.0,0.0,92,0.00,FEW,,0.00,0.0,WeatherDisplay:10.37,2013-01-17 04:06:00,
2013-01-16 23:11:00,60.8,58.5,29.97,SSW,208,0.0,0.0,92,0.00,FEW,,0.00,0.0,WeatherDisplay:10.37,2013-01-17 04:11:00,
2013-01-16 23:16:00,60.7,58.7,29.97,SSW,208,0.0,0.0,93,0.00,FEW,,0.00,0.0,WeatherDisplay:10.37,2013-01-17 04:16:00,
2013-01-16 23:21:00,60.5,58.5,29.97,SSW,208,0.0,0.0,93,0.00,FEW,,0.00,0.0,WeatherDisplay:10.37,2013-01-17 04:21:00,
2013-01-16 23:26:00,60.2,58.2,29.97,SSW,208,0.0,0.0,93,0.00,FEW,,0.00,0.0,WeatherDisplay:10.37,2013-01-17 04:26:00,
2013-01-16 23:31:00,60.2,58.2,29.97,SSW,208,0.0,0.0,93,0.00,FEW,,0.00,0.0,WeatherDisplay:10.37,2013-01-17 04:31:00,
2013-01-16 23:36:00,60.2,58.2,29.97,SSW,208,0.0,0.0,93,0.00,FEW,,0.00,0.0,WeatherDisplay:10.37,2013-01-17 04:36:00,
2013-01-16 23:41:00,60.2,58.2,29.97,SSW,208,0.0,0.0,93,0.00,FEW,,0.00,0.0,WeatherDisplay:10.37,2013-01-17 04:41:00,
2013-01-16 23:46:00,60.1,58.1,29.97,SSW,208,0.0,0.0,93,0.00,FEW,,0.00,0.0,WeatherDisplay:10.37,2013-01-17 04:46:00,
2013-01-16 23:51:00,60.0,58.0,29.97,SSW,208,0.0,0.0,93,0.00,FEW,,0.00,0.0,WeatherDisplay:10.37,2013-01-17 04:51:00,
2013-01-16 23:57:00,60.1,58.1,29.97,SSW,208,0.0,0.0,93,0.00,FEW,,0.00,0.0,WeatherDisplay:10.37,2013-01-17 04:57:00,